sensor_id;sensor_type;location;lat;lon;timestamp;P1;durP1;ratioP1;P2;durP2;ratioP2
22017;SDS011;11173;51.050;7.108;2023-07-13T00:05:00;1.00;;;0.28;;
22017;SDS011;11173;51.050;7.108;2023-07-13T00:15:02;0.20;;;0.10;;
22017;SDS011;11173;51.050;7.108;2023-07-13T00:25:05;0.00;;;0.00;;
22017;SDS011;11173;51.050;7.108;2023-07-13T00:35:06;0.10;;;0.10;;
22017;SDS011;11173;51.050;7.108;2023-07-13T00:55:14;0.10;;;0.00;;
22017;SDS011;11173;51.050;7.108;2023-07-13T01:05:16;0.10;;;0.10;;
22017;SDS011;11173;51.050;7.108;2023-07-13T01:25:46;0.10;;;0.10;;
22017;SDS011;11173;51.050;7.108;2023-07-13T01:35:46;0.32;;;0.10;;
22017;SDS011;11173;51.050;7.108;2023-07-13T01:45:47;0.25;;;0.20;;
22017;SDS011;11173;51.050;7.108;2023-07-13T02:05:48;0.20;;;0.00;;
22017;SDS011;11173;51.050;7.108;2023-07-13T02:25:58;0.40;;;0.20;;
22017;SDS011;11173;51.050;7.108;2023-07-13T02:36:00;0.20;;;0.10;;
22017;SDS011;11173;51.050;7.108;2023-07-13T02:46:01;0.40;;;0.08;;
22017;SDS011;11173;51.050;7.108;2023-07-13T02:56:07;0.10;;;0.10;;
22017;SDS011;11173;51.050;7.108;2023-07-13T03:06:07;0.20;;;0.10;;
22017;SDS011;11173;51.050;7.108;2023-07-13T03:16:09;0.65;;;0.10;;
22017;SDS011;11173;51.050;7.108;2023-07-13T03:26:12;0.45;;;0.20;;
22017;SDS011;11173;51.050;7.108;2023-07-13T03:36:24;0.25;;;0.20;;
22017;SDS011;11173;51.050;7.108;2023-07-13T03:46:26;0.13;;;0.13;;
22017;SDS011;11173;51.050;7.108;2023-07-13T03:56:26;0.32;;;0.10;;
22017;SDS011;11173;51.050;7.108;2023-07-13T04:16:29;0.25;;;0.25;;
22017;SDS011;11173;51.050;7.108;2023-07-13T04:26:29;0.10;;;0.10;;
22017;SDS011;11173;51.050;7.108;2023-07-13T04:36:30;0.50;;;0.20;;
22017;SDS011;11173;51.050;7.108;2023-07-13T04:46:30;0.30;;;0.28;;
22017;SDS011;11173;51.050;7.108;2023-07-13T04:56:31;0.60;;;0.30;;
22017;SDS011;11173;51.050;7.108;2023-07-13T05:06:32;1.60;;;0.30;;
22017;SDS011;11173;51.050;7.108;2023-07-13T05:16:32;0.32;;;0.30;;
22017;SDS011;11173;51.050;7.108;2023-07-13T05:26:33;1.85;;;0.57;;
22017;SDS011;11173;51.050;7.108;2023-07-13T05:36:33;1.65;;;0.70;;
22017;SDS011;11173;51.050;7.108;2023-07-13T05:46:34;0.67;;;0.50;;
22017;SDS011;11173;51.050;7.108;2023-07-13T05:56:34;1.58;;;0.47;;
22017;SDS011;11173;51.050;7.108;2023-07-13T06:06:35;2.10;;;0.80;;
22017;SDS011;11173;51.050;7.108;2023-07-13T06:16:35;3.00;;;0.85;;
22017;SDS011;11173;51.050;7.108;2023-07-13T06:26:36;0.73;;;0.50;;
22017;SDS011;11173;51.050;7.108;2023-07-13T06:36:36;2.22;;;0.68;;
22017;SDS011;11173;51.050;7.108;2023-07-13T06:46:41;0.98;;;0.60;;
22017;SDS011;11173;51.050;7.108;2023-07-13T06:56:41;1.15;;;0.73;;
22017;SDS011;11173;51.050;7.108;2023-07-13T07:06:42;1.45;;;0.43;;
22017;SDS011;11173;51.050;7.108;2023-07-13T07:16:42;1.58;;;0.70;;
22017;SDS011;11173;51.050;7.108;2023-07-13T07:26:43;0.63;;;0.45;;
22017;SDS011;11173;51.050;7.108;2023-07-13T07:36:43;0.47;;;0.30;;
22017;SDS011;11173;51.050;7.108;2023-07-13T07:46:43;1.25;;;0.60;;
22017;SDS011;11173;51.050;7.108;2023-07-13T07:56:44;2.80;;;0.93;;
22017;SDS011;11173;51.050;7.108;2023-07-13T08:06:44;1.92;;;0.80;;
22017;SDS011;11173;51.050;7.108;2023-07-13T08:16:45;1.17;;;0.60;;
22017;SDS011;11173;51.050;7.108;2023-07-13T08:26:45;3.72;;;0.88;;
22017;SDS011;11173;51.050;7.108;2023-07-13T08:36:46;1.92;;;0.85;;
22017;SDS011;11173;51.050;7.108;2023-07-13T08:46:46;1.48;;;1.13;;
22017;SDS011;11173;51.050;7.108;2023-07-13T08:56:49;2.15;;;0.90;;
22017;SDS011;11173;51.050;7.108;2023-07-13T09:07:02;4.43;;;1.10;;
22017;SDS011;11173;51.050;7.108;2023-07-13T09:17:12;2.25;;;1.00;;
22017;SDS011;11173;51.050;7.108;2023-07-13T09:27:21;1.58;;;0.70;;
22017;SDS011;11173;51.050;7.108;2023-07-13T09:37:27;1.67;;;0.90;;
22017;SDS011;11173;51.050;7.108;2023-07-13T09:47:33;2.58;;;0.98;;
22017;SDS011;11173;51.050;7.108;2023-07-13T09:57:39;0.77;;;0.50;;
22017;SDS011;11173;51.050;7.108;2023-07-13T10:07:47;2.95;;;0.88;;
22017;SDS011;11173;51.050;7.108;2023-07-13T10:17:48;3.17;;;1.13;;
22017;SDS011;11173;51.050;7.108;2023-07-13T10:27:52;0.88;;;0.52;;
22017;SDS011;11173;51.050;7.108;2023-07-13T10:38:10;1.58;;;0.85;;
22017;SDS011;11173;51.050;7.108;2023-07-13T10:48:12;2.70;;;0.70;;
22017;SDS011;11173;51.050;7.108;2023-07-13T10:58:18;1.40;;;0.57;;
22017;SDS011;11173;51.050;7.108;2023-07-13T11:08:35;3.50;;;1.27;;
22017;SDS011;11173;51.050;7.108;2023-07-13T11:18:39;1.43;;;0.70;;
22017;SDS011;11173;51.050;7.108;2023-07-13T11:28:41;0.73;;;0.60;;
22017;SDS011;11173;51.050;7.108;2023-07-13T11:38:43;1.08;;;0.50;;
22017;SDS011;11173;51.050;7.108;2023-07-13T11:48:46;1.00;;;0.55;;
22017;SDS011;11173;51.050;7.108;2023-07-13T11:58:49;0.82;;;0.50;;
22017;SDS011;11173;51.050;7.108;2023-07-13T12:08:51;3.05;;;0.63;;
22017;SDS011;11173;51.050;7.108;2023-07-13T12:18:52;1.45;;;0.50;;
22017;SDS011;11173;51.050;7.108;2023-07-13T12:28:55;1.67;;;0.43;;
22017;SDS011;11173;51.050;7.108;2023-07-13T12:38:57;1.73;;;0.70;;
22017;SDS011;11173;51.050;7.108;2023-07-13T12:49:05;0.95;;;0.55;;
22017;SDS011;11173;51.050;7.108;2023-07-13T12:59:08;0.60;;;0.22;;
22017;SDS011;11173;51.050;7.108;2023-07-13T13:09:18;1.85;;;0.45;;
22017;SDS011;11173;51.050;7.108;2023-07-13T13:19:24;2.05;;;0.60;;
22017;SDS011;11173;51.050;7.108;2023-07-13T13:29:27;1.00;;;0.43;;
22017;SDS011;11173;51.050;7.108;2023-07-13T13:39:29;2.97;;;0.60;;
22017;SDS011;11173;51.050;7.108;2023-07-13T13:49:35;1.02;;;0.52;;
22017;SDS011;11173;51.050;7.108;2023-07-13T13:59:36;0.88;;;0.50;;
22017;SDS011;11173;51.050;7.108;2023-07-13T14:09:39;1.05;;;0.50;;
22017;SDS011;11173;51.050;7.108;2023-07-13T14:19:40;1.25;;;0.70;;
22017;SDS011;11173;51.050;7.108;2023-07-13T14:29:40;0.77;;;0.55;;
22017;SDS011;11173;51.050;7.108;2023-07-13T14:39:42;0.60;;;0.50;;
22017;SDS011;11173;51.050;7.108;2023-07-13T14:49:44;0.57;;;0.30;;
22017;SDS011;11173;51.050;7.108;2023-07-13T14:59:46;1.45;;;0.43;;
22017;SDS011;11173;51.050;7.108;2023-07-13T15:09:47;0.63;;;0.40;;
22017;SDS011;11173;51.050;7.108;2023-07-13T15:19:48;0.90;;;0.40;;
22017;SDS011;11173;51.050;7.108;2023-07-13T15:29:49;0.85;;;0.50;;
22017;SDS011;11173;51.050;7.108;2023-07-13T15:39:49;1.50;;;0.85;;
22017;SDS011;11173;51.050;7.108;2023-07-13T15:49:50;1.35;;;0.50;;
22017;SDS011;11173;51.050;7.108;2023-07-13T15:59:50;1.48;;;0.75;;
22017;SDS011;11173;51.050;7.108;2023-07-13T16:09:51;0.98;;;0.50;;
22017;SDS011;11173;51.050;7.108;2023-07-13T16:19:51;1.27;;;0.50;;
22017;SDS011;11173;51.050;7.108;2023-07-13T16:29:53;0.82;;;0.60;;
22017;SDS011;11173;51.050;7.108;2023-07-13T16:39:54;0.40;;;0.32;;
22017;SDS011;11173;51.050;7.108;2023-07-13T16:49:58;0.65;;;0.45;;
22017;SDS011;11173;51.050;7.108;2023-07-13T16:59:58;1.08;;;0.45;;
22017;SDS011;11173;51.050;7.108;2023-07-13T17:10:01;0.50;;;0.38;;
22017;SDS011;11173;51.050;7.108;2023-07-13T17:20:02;0.30;;;0.28;;
22017;SDS011;11173;51.050;7.108;2023-07-13T17:30:03;0.50;;;0.30;;
22017;SDS011;11173;51.050;7.108;2023-07-13T17:40:08;0.50;;;0.35;;
22017;SDS011;11173;51.050;7.108;2023-07-13T17:50:16;0.65;;;0.30;;
22017;SDS011;11173;51.050;7.108;2023-07-13T18:00:22;0.35;;;0.35;;
22017;SDS011;11173;51.050;7.108;2023-07-13T18:10:29;0.20;;;0.20;;
22017;SDS011;11173;51.050;7.108;2023-07-13T18:20:30;0.15;;;0.15;;
22017;SDS011;11173;51.050;7.108;2023-07-13T18:30:30;0.20;;;0.20;;
22017;SDS011;11173;51.050;7.108;2023-07-13T18:40:31;0.40;;;0.30;;
22017;SDS011;11173;51.050;7.108;2023-07-13T18:50:34;0.20;;;0.20;;
22017;SDS011;11173;51.050;7.108;2023-07-13T19:00:35;0.40;;;0.30;;
22017;SDS011;11173;51.050;7.108;2023-07-13T19:10:35;0.20;;;0.20;;
22017;SDS011;11173;51.050;7.108;2023-07-13T19:20:36;0.98;;;0.30;;
22017;SDS011;11173;51.050;7.108;2023-07-13T19:30:37;0.17;;;0.17;;
22017;SDS011;11173;51.050;7.108;2023-07-13T19:40:37;0.20;;;0.08;;
22017;SDS011;11173;51.050;7.108;2023-07-13T19:50:38;0.10;;;0.10;;
22017;SDS011;11173;51.050;7.108;2023-07-13T20:00:41;0.10;;;0.03;;
22017;SDS011;11173;51.050;7.108;2023-07-13T20:10:41;0.00;;;0.00;;
22017;SDS011;11173;51.050;7.108;2023-07-13T20:20:42;0.40;;;0.20;;
22017;SDS011;11173;51.050;7.108;2023-07-13T20:30:46;0.10;;;0.08;;
22017;SDS011;11173;51.050;7.108;2023-07-13T20:40:48;0.00;;;0.00;;
22017;SDS011;11173;51.050;7.108;2023-07-13T20:50:53;0.00;;;0.00;;
22017;SDS011;11173;51.050;7.108;2023-07-13T21:00:58;2.13;;;0.20;;
22017;SDS011;11173;51.050;7.108;2023-07-13T21:11:00;0.20;;;0.20;;
22017;SDS011;11173;51.050;7.108;2023-07-13T21:21:00;0.47;;;0.30;;
22017;SDS011;11173;51.050;7.108;2023-07-13T21:31:02;0.28;;;0.28;;
22017;SDS011;11173;51.050;7.108;2023-07-13T21:41:20;0.20;;;0.20;;
22017;SDS011;11173;51.050;7.108;2023-07-13T21:51:29;1.25;;;0.70;;
22017;SDS011;11173;51.050;7.108;2023-07-13T22:01:30;1.48;;;0.70;;
22017;SDS011;11173;51.050;7.108;2023-07-13T22:11:33;1.05;;;0.70;;
22017;SDS011;11173;51.050;7.108;2023-07-13T22:21:33;0.65;;;0.60;;
22017;SDS011;11173;51.050;7.108;2023-07-13T22:41:34;1.10;;;0.60;;
22017;SDS011;11173;51.050;7.108;2023-07-13T22:51:35;0.70;;;0.57;;
22017;SDS011;11173;51.050;7.108;2023-07-13T23:01:36;1.15;;;0.75;;
22017;SDS011;11173;51.050;7.108;2023-07-13T23:11:38;1.15;;;0.82;;
22017;SDS011;11173;51.050;7.108;2023-07-13T23:21:39;0.50;;;0.50;;
22017;SDS011;11173;51.050;7.108;2023-07-13T23:42:31;0.80;;;0.50;;
22017;SDS011;11173;51.050;7.108;2023-07-13T23:52:31;2.25;;;0.95;;
